M/V Grande Caribe — WCX4495 — position and weather

sailwx.info

Track history (hours):
 
Tides and Currents Weather Stations Pressure Air Temp Water Temp Dewpoint Dewpoint Depression Visibility Wind Speed Wind Dir Waves Ship Positions

M/V Grande Caribe

Owner: AMERICAN CANADIAN CARIBBEAN LINE INC, WARREN, RI. More information available from US FCC via Universal Licensing System and Coast Guard Vessel Documentation Center.

Last reported at 2015-Aug-28 12:25 UTC. Time now 2015-Aug-30 15:58 UTC.
Position N 41°43' W 071°17'.

Length 55 m; draft 2.1 m.

Type: Ship. MMSI: 369023000.

Date/timePositionNaut miles runAvg speedWind from/ knotsBaromVisibWave heightAir tempDewpointWater temp
2015-Aug-28 12:25N 41°43' W 071°17'0 0.0
2015-Aug-28 11:31N 41°43' W 071°17'0 0.0
2015-Aug-28 10:31N 41°43' W 071°17'0 0.0
2015-Aug-28 09:31N 41°43' W 071°17'0 0.0
2015-Aug-28 08:31N 41°43' W 071°17'0 0.0
2015-Aug-28 07:16N 41°43' W 071°17'0 0.0
2015-Aug-28 06:19N 41°43' W 071°17'0 0.0
2015-Aug-28 05:22N 41°43' W 071°17'0 0.0
2015-Aug-27 11:28N 41°43' W 071°17'0 0.0
2015-Aug-27 10:31N 41°43' W 071°17'0 0.0
2015-Aug-27 09:31N 41°43' W 071°17'0 0.0
2015-Aug-27 08:31N 41°43' W 071°17'0 0.0
2015-Aug-27 07:31N 41°43' W 071°17'0 0.0
2015-Aug-27 06:31N 41°43' W 071°17'0 0.0
2015-Aug-27 05:31N 41°43' W 071°17'0 0.0
2015-Aug-27 04:28N 41°43' W 071°17'0 0.0
2015-Aug-27 03:31N 41°43' W 071°17'0 0.0
2015-Aug-27 02:31N 41°43' W 071°17'0 0.0
2015-Aug-27 01:31N 41°43' W 071°17'0 0.0
2015-Aug-26 12:04N 41°43' W 071°17'0 0.0
2015-Aug-26 11:31N 41°43' W 071°17'0 0.0
2015-Aug-26 10:25N 41°43' W 071°17'0 0.0
2015-Aug-26 08:28N 41°43' W 071°17'0 0.0
2015-Aug-26 00:19N 41°43' W 071°17'0 0.0
2015-Aug-25 13:28N 41°43' W 071°17'0 0.0
2015-Aug-25 12:19N 41°43' W 071°17'0 0.0
2015-Aug-25 11:28N 41°43' W 071°17'0 0.0
2015-Aug-25 10:31N 41°43' W 071°17'0 0.0
2015-Aug-25 09:31N 41°43' W 071°17'0 0.0
2015-Aug-25 08:22N 41°43' W 071°17'0 0.0
2015-Aug-25 07:28N 41°43' W 071°17'0 0.0
2015-Aug-25 06:31N 41°43' W 071°17'0 0.0
2015-Aug-25 05:31N 41°43' W 071°17'1 0.6
2015-Aug-25 04:33N 41°43' W 071°17'19 9.1
2015-Aug-25 02:26N 41°24' W 071°20'8 9.1
2015-Aug-25 01:33N 41°22' W 071°09'1010.0
2015-Aug-25 00:33N 41°28' W 070°58'1010.2
2015-Aug-24 23:33N 41°33' W 070°46'10 9.9
2015-Aug-24 22:33N 41°41' W 070°40'1010.3
2015-Aug-24 21:33N 41°47' W 070°29'1110.2
2015-Aug-24 20:30N 41°58' W 070°28'10 9.6
2015-Aug-24 19:30N 42°07' W 070°29'12 9.7
2015-Aug-24 18:14N 42°19' W 070°30'  
Track history (hours):
 
Tides and Currents Weather Stations Pressure Air Temp Water Temp Dewpoint Dewpoint Depression Visibility Wind Speed Wind Dir Waves Ship Positions

M/V Grande Caribe

Owner: AMERICAN CANADIAN CARIBBEAN LINE INC, WARREN, RI. More information available from US FCC via Universal Licensing System and Coast Guard Vessel Documentation Center.

Last reported at 2015-Aug-28 12:25 UTC. Time now 2015-Aug-30 15:58 UTC.
Position N 41°43' W 071°17'.

Length 55 m; draft 2.1 m.

Type: Ship. MMSI: 369023000.

Date/timePositionNaut miles runAvg speedWind from/ knotsBaromVisibWave heightAir tempDewpointWater temp
2015-Aug-28 12:25N 41°43' W 071°17'0 0.0
2015-Aug-28 11:31N 41°43' W 071°17'0 0.0
2015-Aug-28 10:31N 41°43' W 071°17'0 0.0
2015-Aug-28 09:31N 41°43' W 071°17'0 0.0
2015-Aug-28 08:31N 41°43' W 071°17'0 0.0
2015-Aug-28 07:16N 41°43' W 071°17'0 0.0
2015-Aug-28 06:19N 41°43' W 071°17'0 0.0
2015-Aug-28 05:22N 41°43' W 071°17'0 0.0
2015-Aug-27 11:28N 41°43' W 071°17'0 0.0
2015-Aug-27 10:31N 41°43' W 071°17'0 0.0
2015-Aug-27 09:31N 41°43' W 071°17'0 0.0
2015-Aug-27 08:31N 41°43' W 071°17'0 0.0
2015-Aug-27 07:31N 41°43' W 071°17'0 0.0
2015-Aug-27 06:31N 41°43' W 071°17'0 0.0
2015-Aug-27 05:31N 41°43' W 071°17'0 0.0
2015-Aug-27 04:28N 41°43' W 071°17'0 0.0
2015-Aug-27 03:31N 41°43' W 071°17'0 0.0
2015-Aug-27 02:31N 41°43' W 071°17'0 0.0
2015-Aug-27 01:31N 41°43' W 071°17'0 0.0
2015-Aug-26 12:04N 41°43' W 071°17'0 0.0
2015-Aug-26 11:31N 41°43' W 071°17'0 0.0
2015-Aug-26 10:25N 41°43' W 071°17'0 0.0
2015-Aug-26 08:28N 41°43' W 071°17'0 0.0
2015-Aug-26 00:19N 41°43' W 071°17'0 0.0
2015-Aug-25 13:28N 41°43' W 071°17'0 0.0
2015-Aug-25 12:19N 41°43' W 071°17'0 0.0
2015-Aug-25 11:28N 41°43' W 071°17'0 0.0
2015-Aug-25 10:31N 41°43' W 071°17'0 0.0
2015-Aug-25 09:31N 41°43' W 071°17'0 0.0
2015-Aug-25 08:22N 41°43' W 071°17'0 0.0
2015-Aug-25 07:28N 41°43' W 071°17'0 0.0
2015-Aug-25 06:31N 41°43' W 071°17'0 0.0
2015-Aug-25 05:31N 41°43' W 071°17'1 0.6
2015-Aug-25 04:33N 41°43' W 071°17'19 9.1
2015-Aug-25 02:26N 41°24' W 071°20'8 9.1
2015-Aug-25 01:33N 41°22' W 071°09'1010.0
2015-Aug-25 00:33N 41°28' W 070°58'1010.2
2015-Aug-24 23:33N 41°33' W 070°46'10 9.9
2015-Aug-24 22:33N 41°41' W 070°40'1010.3
2015-Aug-24 21:33N 41°47' W 070°29'1110.2
2015-Aug-24 20:30N 41°58' W 070°28'10 9.6
2015-Aug-24 19:30N 42°07' W 070°29'12 9.7
2015-Aug-24 18:14N 42°19' W 070°30'  

Dump ship's entire track history